createdAt,value
2023-04-02T00:00:22.301Z,91674.84
2023-04-02T00:03:01.727Z,91675.03
2023-04-02T00:05:52.504Z,91669.25
2023-04-02T00:08:27.830Z,91665.84
2023-04-02T00:11:00.679Z,91666.16
2023-04-02T00:13:36.026Z,91661.59
2023-04-02T00:16:09.883Z,91654.81
2023-04-02T00:18:45.882Z,91664.38
2023-04-02T00:21:23.260Z,91669.53
2023-04-02T00:23:54.776Z,91663.47
2023-04-02T00:26:31.198Z,91656.75
2023-04-02T00:29:01.500Z,91657.69
2023-04-02T00:31:33.347Z,91653.47
2023-04-02T00:34:05.709Z,91663.22
2023-04-02T00:36:38.269Z,91652.81
2023-04-02T00:39:20.209Z,91657.47
2023-04-02T00:41:54.805Z,91654.25
2023-04-02T00:44:24.589Z,91651.16
2023-04-02T00:50:26.622Z,91656.38
2023-04-02T00:52:59.411Z,91648.88
2023-04-02T00:55:35.370Z,91642.34
2023-04-02T00:58:05.823Z,91653.59
2023-04-02T01:00:37.948Z,91657.28
2023-04-02T01:03:36.970Z,91657.09
2023-04-02T01:06:13.411Z,91658.41
2023-04-02T01:09:11.782Z,91669.34
2023-04-02T01:12:07.220Z,91671.50
2023-04-02T01:14:47.531Z,91678.34
2023-04-02T01:17:32.908Z,91675.75
2023-04-02T01:20:56.019Z,91675.84
2023-04-02T01:23:34.851Z,91670.69
2023-04-02T01:26:15.138Z,91669.69
2023-04-02T01:29:02.451Z,91679.88
2023-04-02T01:31:33.690Z,91681.22
2023-04-02T01:34:08.188Z,91678.22
2023-04-02T01:36:49.027Z,91680.69
2023-04-02T01:39:34.593Z,91674.53
2023-04-02T01:42:14.497Z,91681.97
2023-04-02T01:44:50.568Z,91686.94
2023-04-02T01:47:24.713Z,91686.09
2023-04-02T01:49:59.983Z,91680.22
2023-04-02T01:52:40.792Z,91675.19
2023-04-02T01:55:13.351Z,91682.31
2023-04-02T01:57:46.368Z,91685.69
2023-04-02T02:00:20.184Z,91681.25
2023-04-02T02:02:51.907Z,91679.75
2023-04-02T02:05:24.371Z,91672.34
2023-04-02T02:07:55.304Z,91671.31
2023-04-02T02:10:28.917Z,91676.06
2023-04-02T02:13:00.729Z,91680.31
2023-04-02T02:15:34.567Z,91674.22
2023-04-02T02:18:07.778Z,91668.84
2023-04-02T02:20:37.354Z,91678.13
2023-04-02T02:23:07.620Z,91677.00
2023-04-02T02:25:38.830Z,91680.31
2023-04-02T02:28:12.122Z,91683.72
2023-04-02T02:30:47.815Z,91686.00
2023-04-02T02:33:22.500Z,91688.16
2023-04-02T02:35:58.428Z,91693.53
2023-04-02T02:38:57.189Z,91692.91
2023-04-02T02:41:35.151Z,91690.94
2023-04-02T02:44:12.415Z,91687.44
2023-04-02T02:46:48.259Z,91687.22
2023-04-02T02:49:21.604Z,91692.88
2023-04-02T02:51:59.988Z,91697.13
2023-04-02T02:54:31.770Z,91697.75
2023-04-02T02:57:07.307Z,91687.63
2023-04-02T02:59:37.410Z,91696.59
2023-04-02T03:02:09.866Z,91698.34
2023-04-02T03:04:42.166Z,91695.03
2023-04-02T03:07:11.902Z,91698.34
2023-04-02T03:09:52.517Z,91699.16
2023-04-02T03:12:39.363Z,91698.47
2023-04-02T03:15:21.194Z,91701.34
2023-04-02T03:17:58.050Z,91703.00
2023-04-02T03:20:36.586Z,91701.72
2023-04-02T03:23:14.454Z,91699.03
2023-04-02T03:25:49.314Z,91708.59
2023-04-02T03:28:25.100Z,91704.47
2023-04-02T03:31:01.491Z,91713.88
2023-04-02T03:33:37.600Z,91707.97
2023-04-02T03:36:20.243Z,91712.19
2023-04-02T03:38:54.009Z,91713.88
2023-04-02T03:41:31.057Z,91718.38
2023-04-02T03:44:07.956Z,91713.13
2023-04-02T03:46:42.834Z,91715.69
2023-04-02T03:51:19.754Z,91719.53
2023-04-02T03:53:50.993Z,91727.28
2023-04-02T03:56:29.966Z,91718.09
2023-04-02T03:59:12.305Z,91717.06
2023-04-02T04:01:49.956Z,91716.66
2023-04-02T04:04:22.410Z,91724.94
2023-04-02T04:06:54.865Z,91723.38
2023-04-02T04:09:31.929Z,91722.53
2023-04-02T04:12:11.720Z,91717.19
2023-04-02T04:14:49.782Z,91717.94
2023-04-02T04:17:24.872Z,91719.34
2023-04-02T04:20:01.167Z,91727.09
2023-04-02T04:22:34.145Z,91736.38
2023-04-02T04:25:06.325Z,91730.09
2023-04-02T04:27:44.228Z,91735.44
2023-04-02T04:30:25.459Z,91731.72
2023-04-02T04:33:02.112Z,91740.09
2023-04-02T04:35:34.696Z,91740.72
2023-04-02T04:38:14.730Z,91744.94
2023-04-02T04:40:52.638Z,91744.66
2023-04-02T04:43:30.250Z,91750.44
2023-04-02T04:46:06.555Z,91748.31
2023-04-02T04:48:40.717Z,91749.03
2023-04-02T04:51:18.893Z,91750.66
2023-04-02T04:53:52.858Z,91754.63
2023-04-02T04:56:26.809Z,91757.91
2023-04-02T04:59:03.998Z,91761.63
2023-04-02T05:01:42.655Z,91762.28
2023-04-02T05:04:21.072Z,91768.69
2023-04-02T05:06:58.876Z,91765.19
2023-04-02T05:09:36.055Z,91762.28
2023-04-02T05:12:19.391Z,91763.31
2023-04-02T05:14:55.932Z,91763.31
2023-04-02T05:17:33.061Z,91769.00
2023-04-02T05:20:10.041Z,91767.56
2023-04-02T05:22:48.773Z,91771.56
2023-04-02T05:25:25.062Z,91761.84
2023-04-02T05:28:02.511Z,91766.38
2023-04-02T05:30:53.434Z,91758.19
2023-04-02T05:33:27.626Z,91764.47
2023-04-02T05:36:03.534Z,91757.38
2023-04-02T05:38:36.870Z,91766.22
2023-04-02T05:41:22.813Z,91773.75
2023-04-02T05:43:59.964Z,91771.63
2023-04-02T05:46:35.403Z,91779.53
2023-04-02T05:49:12.057Z,91777.19
2023-04-02T05:51:47.473Z,91768.41
2023-04-02T05:54:25.647Z,91774.69
2023-04-02T05:57:03.861Z,91781.75
2023-04-02T05:59:38.858Z,91783.75
2023-04-02T06:02:18.514Z,91791.50
2023-04-02T06:04:55.868Z,91794.00
2023-04-02T06:07:28.546Z,91790.00
2023-04-02T06:10:07.155Z,91786.19
2023-04-02T06:12:45.938Z,91788.09
2023-04-02T06:15:16.855Z,91786.41
2023-04-02T06:17:50.017Z,91779.44
2023-04-02T06:20:21.736Z,91786.41
2023-04-02T06:22:53.912Z,91793.94
2023-04-02T06:25:30.237Z,91790.03
2023-04-02T06:28:04.333Z,91799.81
2023-04-02T06:30:36.850Z,91794.22
2023-04-02T06:33:08.228Z,91804.53
2023-04-02T06:35:40.978Z,91809.88
2023-04-02T06:38:17.836Z,91805.16
2023-04-02T06:40:53.677Z,91818.09
2023-04-02T06:43:33.719Z,91814.31
2023-04-02T06:46:10.439Z,91827.34
2023-04-02T06:51:14.623Z,91824.66
2023-04-02T06:53:47.461Z,91837.13
2023-04-02T06:56:32.076Z,91836.06
2023-04-02T06:59:03.791Z,91837.34
2023-04-02T07:01:38.887Z,91831.78
2023-04-02T07:04:08.788Z,91828.97
2023-04-02T07:06:39.671Z,91829.22
2023-04-02T07:09:09.489Z,91825.13
2023-04-02T07:11:38.869Z,91835.25
2023-04-02T07:14:08.783Z,91842.56
2023-04-02T07:16:37.997Z,91840.88
2023-04-02T07:19:07.757Z,91847.06
2023-04-02T07:21:38.532Z,91861.34
2023-04-02T07:24:08.752Z,91862.19
2023-04-02T07:26:38.233Z,91863.97
2023-04-02T07:29:10.240Z,91865.91
2023-04-02T07:31:41.014Z,91867.69
2023-04-02T07:34:11.500Z,91869.22
2023-04-02T07:36:42.207Z,91858.47
2023-04-02T07:39:12.427Z,91857.31
2023-04-02T07:41:55.448Z,91862.38
2023-04-02T07:44:25.267Z,91862.09
2023-04-02T07:46:54.855Z,91870.31
2023-04-02T07:49:24.454Z,91863.69
2023-04-02T07:51:55.678Z,91857.72
2023-04-02T07:54:25.096Z,91858.56
2023-04-02T07:56:54.557Z,91859.38
2023-04-02T07:59:24.226Z,91860.72
2023-04-02T08:01:54.781Z,91858.56
2023-04-02T08:04:25.294Z,91867.50
2023-04-02T08:06:56.212Z,91869.16
2023-04-02T08:09:25.798Z,91867.44
2023-04-02T08:11:55.078Z,91861.72
2023-04-02T08:14:24.397Z,91865.56
2023-04-02T08:16:56.407Z,91865.25
2023-04-02T08:19:26.258Z,91862.66
2023-04-02T08:21:57.385Z,91865.53
2023-04-02T08:24:27.231Z,91864.88
2023-04-02T08:26:56.752Z,91871.06
2023-04-02T08:29:26.394Z,91867.72
2023-04-02T08:31:56.151Z,91872.91
2023-04-02T08:34:25.693Z,91869.69
2023-04-02T08:37:00.361Z,91877.59
2023-04-02T08:39:33.271Z,91874.03
2023-04-02T08:42:08.246Z,91877.34
2023-04-02T08:44:47.104Z,91871.94
2023-04-02T08:47:21.848Z,91870.50
2023-04-02T08:49:56.780Z,91858.03
2023-04-02T08:52:30.254Z,91868.59
2023-04-02T08:55:00.728Z,91873.38
2023-04-02T08:57:38.999Z,91867.63
2023-04-02T09:00:27.697Z,91875.69
2023-04-02T09:03:00.755Z,91872.06
2023-04-02T09:05:34.801Z,91879.28
2023-04-02T09:08:11.450Z,91876.63
2023-04-02T09:10:47.290Z,91884.03
2023-04-02T09:13:24.389Z,91886.13
2023-04-02T09:16:00.304Z,91889.78
2023-04-02T09:18:33.098Z,91879.78
2023-04-02T09:21:10.170Z,91881.06
2023-04-02T09:23:40.974Z,91882.66
2023-04-02T09:26:24.748Z,91881.75
2023-04-02T09:29:01.348Z,91867.25
2023-04-02T09:31:37.790Z,91876.44
2023-04-02T09:34:30.932Z,91877.13
2023-04-02T09:37:10.675Z,91876.41
2023-04-02T09:39:41.486Z,91878.78
2023-04-02T09:42:35.230Z,91875.56
2023-04-02T09:45:22.936Z,91873.66
2023-04-02T09:51:16.834Z,91869.25
2023-04-02T09:53:49.485Z,91864.34
2023-04-02T09:56:23.455Z,91866.31
2023-04-02T09:59:05.982Z,91863.34
2023-04-02T10:01:39.006Z,91868.53
2023-04-02T10:04:35.129Z,91862.94
2023-04-02T10:07:07.763Z,91859.34
2023-04-02T10:09:39.848Z,91856.59
2023-04-02T10:12:15.038Z,91862.03
2023-04-02T10:14:48.574Z,91860.16
2023-04-02T10:17:23.549Z,91858.69
2023-04-02T10:19:57.018Z,91850.41
2023-04-02T10:22:31.411Z,91857.38
2023-04-02T10:25:01.533Z,91857.59
2023-04-02T10:27:39.189Z,91858.91
2023-04-02T10:30:20.481Z,91861.53
2023-04-02T10:32:56.757Z,91849.97
2023-04-02T10:35:40.992Z,91855.28
2023-04-02T10:38:38.945Z,91855.47
2023-04-02T10:41:24.640Z,91847.38
2023-04-02T10:44:34.037Z,91849.13
2023-04-02T10:47:22.372Z,91846.56
2023-04-02T10:50:11.611Z,91853.09
2023-04-02T10:52:47.542Z,91848.72
2023-04-02T10:55:23.854Z,91838.50
2023-04-02T10:57:55.981Z,91824.59
2023-04-02T11:00:28.597Z,91824.59
2023-04-02T11:03:08.194Z,91825.03
2023-04-02T11:05:44.174Z,91838.47
2023-04-02T11:08:22.062Z,91839.03
2023-04-02T11:11:01.771Z,91824.22
2023-04-02T11:13:39.150Z,91819.00
2023-04-02T11:16:09.216Z,91814.72
2023-04-02T11:18:39.008Z,91816.53
2023-04-02T11:21:10.302Z,91815.53
2023-04-02T11:23:58.135Z,91808.19
2023-04-02T11:26:37.728Z,91812.53
2023-04-02T11:29:32.280Z,91812.72
2023-04-02T11:32:40.731Z,91811.00
2023-04-02T11:35:38.451Z,91815.09
2023-04-02T11:38:53.021Z,91810.59
2023-04-02T11:42:04.984Z,91808.63
2023-04-02T11:44:34.378Z,91811.72
2023-04-02T11:47:21.033Z,91803.88
2023-04-02T11:50:22.222Z,91802.31
2023-04-02T11:52:55.878Z,91805.25
2023-04-02T11:55:34.517Z,91802.72
2023-04-02T11:58:46.369Z,91803.88
2023-04-02T12:01:59.711Z,91804.69
2023-04-02T12:04:57.449Z,91796.53
2023-04-02T12:08:10.373Z,91794.84
2023-04-02T12:10:57.068Z,91800.59
2023-04-02T12:13:55.401Z,91798.91
2023-04-02T12:16:29.407Z,91785.22
2023-04-02T12:18:59.806Z,91803.97
2023-04-02T12:21:31.510Z,91792.44
2023-04-02T12:24:02.131Z,91800.69
2023-04-02T12:26:42.588Z,91795.97
2023-04-02T12:29:28.413Z,91796.72
2023-04-02T12:32:00.004Z,91795.97
2023-04-02T12:34:32.031Z,91786.22
2023-04-02T12:37:04.256Z,91795.13
2023-04-02T12:39:35.679Z,91795.72
2023-04-02T12:42:05.150Z,91791.91
2023-04-02T12:44:36.071Z,91790.56
2023-04-02T12:47:07.384Z,91795.72
2023-04-02T12:51:13.268Z,91802.56
2023-04-02T12:53:44.270Z,91798.94
2023-04-02T12:56:22.796Z,91803.44
2023-04-02T12:58:56.373Z,91799.69
2023-04-02T13:01:28.532Z,91790.66
2023-04-02T13:04:07.397Z,91786.63
2023-04-02T13:06:39.078Z,91785.00
2023-04-02T13:09:30.139Z,91779.56
2023-04-02T13:12:00.742Z,91779.44
2023-04-02T13:14:31.305Z,91781.31
2023-04-02T13:17:00.611Z,91776.22
2023-04-02T13:19:32.889Z,91775.22
2023-04-02T13:22:25.616Z,91782.25
2023-04-02T13:24:58.491Z,91782.47
2023-04-02T13:27:27.871Z,91775.47
2023-04-02T13:29:58.442Z,91785.47
2023-04-02T13:32:28.575Z,91776.34
2023-04-02T13:34:57.883Z,91777.16
2023-04-02T13:37:28.846Z,91783.53
2023-04-02T13:39:58.216Z,91777.00
2023-04-02T13:42:27.628Z,91784.03
2023-04-02T13:44:57.017Z,91782.09
2023-04-02T13:47:26.870Z,91792.56
2023-04-02T13:49:56.239Z,91783.66
2023-04-02T13:52:25.697Z,91777.91
2023-04-02T13:55:00.846Z,91774.44
2023-04-02T13:57:30.304Z,91776.00
2023-04-02T13:59:59.742Z,91774.53
2023-04-02T14:02:29.348Z,91771.06
2023-04-02T14:05:13.687Z,91766.66
2023-04-02T14:07:57.832Z,91767.78
2023-04-02T14:10:48.793Z,91772.06
2023-04-02T14:13:36.335Z,91762.25
2023-04-02T14:16:22.631Z,91761.84
2023-04-02T14:19:23.313Z,91776.72
2023-04-02T14:22:06.514Z,91768.25
2023-04-02T14:24:46.618Z,91765.69
2023-04-02T14:27:29.692Z,91769.03
2023-04-02T14:30:07.971Z,91764.75
2023-04-02T14:32:45.773Z,91774.63
2023-04-02T14:35:25.156Z,91770.72
2023-04-02T14:38:05.859Z,91772.41
2023-04-02T14:40:42.376Z,91777.66
2023-04-02T14:43:21.472Z,91771.75
2023-04-02T14:46:01.138Z,91775.88
2023-04-02T14:48:47.950Z,91774.78
2023-04-02T14:51:27.617Z,91776.28
2023-04-02T14:54:06.798Z,91782.19
2023-04-02T14:56:43.214Z,91775.31
2023-04-02T14:59:27.706Z,91785.84
2023-04-02T15:02:05.478Z,91788.31
2023-04-02T15:04:42.006Z,91778.31
2023-04-02T15:07:21.671Z,91788.81
2023-04-02T15:10:00.548Z,91791.44
2023-04-02T15:12:36.748Z,91788.78
2023-04-02T15:15:29.634Z,91795.00
2023-04-02T15:18:05.230Z,91794.66
2023-04-02T15:20:44.723Z,91795.97
2023-04-02T15:23:24.952Z,91802.22
2023-04-02T15:26:08.027Z,91799.25
2023-04-02T15:28:44.936Z,91811.50
2023-04-02T15:31:17.257Z,91807.19
2023-04-02T15:33:50.191Z,91806.50
2023-04-02T15:36:47.257Z,91806.97
2023-04-02T15:39:43.692Z,91812.88
2023-04-02T15:42:22.562Z,91817.38
2023-04-02T15:45:24.282Z,91826.19
2023-04-02T15:51:37.680Z,91828.59
2023-04-02T15:54:27.218Z,91831.50
2023-04-02T15:57:13.756Z,91822.84
2023-04-02T16:00:04.218Z,91829.06
2023-04-02T16:03:17.691Z,91827.47
2023-04-02T16:06:06.209Z,91828.22
2023-04-02T16:09:11.534Z,91837.06
2023-04-02T16:11:40.880Z,91834.38
2023-04-02T16:14:28.570Z,91842.25
2023-04-02T16:17:08.068Z,91845.16
2023-04-02T16:19:50.612Z,91844.16
2023-04-02T16:22:26.114Z,91848.19
2023-04-02T16:25:03.697Z,91847.63
2023-04-02T16:27:39.285Z,91844.66
2023-04-02T16:30:36.210Z,91845.19
2023-04-02T16:33:23.630Z,91847.03
2023-04-02T16:36:05.983Z,91848.34
2023-04-02T16:38:51.840Z,91852.50
2023-04-02T16:41:33.421Z,91848.13
2023-04-02T16:44:15.084Z,91849.94
2023-04-02T16:47:03.117Z,91854.38
2023-04-02T16:49:40.135Z,91854.66
2023-04-02T16:52:33.789Z,91857.97
2023-04-02T16:55:25.177Z,91856.19
2023-04-02T16:58:09.080Z,91864.13
2023-04-02T17:00:46.112Z,91853.69
2023-04-02T17:03:37.751Z,91854.50
2023-04-02T17:06:11.072Z,91866.84
2023-04-02T17:08:45.993Z,91865.19
2023-04-02T17:11:26.248Z,91863.91
2023-04-02T17:14:06.384Z,91865.28
2023-04-02T17:16:43.805Z,91881.56
2023-04-02T17:19:15.777Z,91883.44
2023-04-02T17:21:49.157Z,91882.56
2023-04-02T17:24:25.911Z,91894.03
2023-04-02T17:27:01.168Z,91887.16
2023-04-02T17:29:38.353Z,91894.22
2023-04-02T17:32:16.364Z,91899.94
2023-04-02T17:34:45.675Z,91902.59
2023-04-02T17:37:28.209Z,91903.50
2023-04-02T17:40:14.281Z,91911.22
2023-04-02T17:42:56.455Z,91919.41
2023-04-02T17:45:38.391Z,91919.72
2023-04-02T17:48:18.166Z,91922.13
2023-04-02T17:51:09.759Z,91932.47
2023-04-02T17:53:50.707Z,91935.09
2023-04-02T17:56:59.594Z,91943.13
2023-04-02T17:59:49.011Z,91937.16
2023-04-02T18:02:39.896Z,91945.19
2023-04-02T18:05:21.754Z,91941.75
2023-04-02T18:08:04.439Z,91949.78
2023-04-02T18:10:42.451Z,91954.22
2023-04-02T18:13:24.257Z,91949.84
2023-04-02T18:16:09.485Z,91956.34
2023-04-02T18:19:19.323Z,91960.84
2023-04-02T18:21:57.229Z,91961.19
2023-04-02T18:24:54.052Z,91959.53
2023-04-02T18:27:49.299Z,91961.44
2023-04-02T18:30:26.277Z,91967.94
2023-04-02T18:33:20.644Z,91964.84
2023-04-02T18:36:01.398Z,91972.28
2023-04-02T18:38:42.298Z,91965.28
2023-04-02T18:41:38.412Z,91967.38
2023-04-02T18:44:23.853Z,91966.66
2023-04-02T18:46:57.167Z,91971.59
2023-04-02T18:51:16.879Z,91981.63
2023-04-02T18:53:47.196Z,91973.13
2023-04-02T18:56:21.969Z,91981.84
2023-04-02T18:58:59.990Z,91982.22
2023-04-02T19:01:38.729Z,91984.53
2023-04-02T19:04:13.181Z,91983.25
2023-04-02T19:06:47.694Z,91982.88
2023-04-02T19:09:21.008Z,91986.06
2023-04-02T19:11:53.120Z,91983.38
2023-04-02T19:14:24.440Z,91982.19
2023-04-02T19:17:03.296Z,91985.72
2023-04-02T19:19:39.655Z,91990.78
2023-04-02T19:22:31.756Z,91992.81
2023-04-02T19:25:36.176Z,91996.69
2023-04-02T19:28:14.829Z,91996.00
2023-04-02T19:30:59.133Z,91993.28
2023-04-02T19:33:49.879Z,91998.59
2023-04-02T19:36:47.491Z,92012.16
2023-04-02T19:40:00.290Z,92008.97
2023-04-02T19:42:44.056Z,92012.63
2023-04-02T19:45:33.118Z,92018.53
2023-04-02T19:48:14.707Z,92021.75
2023-04-02T19:50:44.649Z,92017.97
2023-04-02T19:53:15.030Z,92024.56
2023-04-02T19:55:46.936Z,92023.16
2023-04-02T19:58:28.765Z,92034.00
2023-04-02T20:00:58.751Z,92027.41
2023-04-02T20:03:28.362Z,92031.50
2023-04-02T20:05:59.943Z,92033.03
2023-04-02T20:08:29.852Z,92026.13
2023-04-02T20:11:01.925Z,92030.22
2023-04-02T20:13:31.751Z,92030.03
2023-04-02T20:16:02.132Z,92027.56
2023-04-02T20:18:32.160Z,92031.84
2023-04-02T20:21:06.383Z,92035.66
2023-04-02T20:23:36.871Z,92032.91
2023-04-02T20:26:08.799Z,92034.81
2023-04-02T20:28:38.113Z,92032.34
2023-04-02T20:31:10.473Z,92036.47
2023-04-02T20:33:40.047Z,92030.44
2023-04-02T20:36:12.916Z,92020.50
2023-04-02T20:38:41.973Z,92021.53
2023-04-02T20:41:12.858Z,92024.75
2023-04-02T20:43:42.948Z,92020.72
2023-04-02T20:46:14.701Z,92015.50
2023-04-02T20:48:44.702Z,92023.53
2023-04-02T20:51:17.081Z,92015.31
2023-04-02T20:53:46.808Z,92013.88
2023-04-02T20:56:19.736Z,92010.47
2023-04-02T20:58:49.257Z,92012.25
2023-04-02T21:01:23.091Z,92014.03
2023-04-02T21:03:57.256Z,92017.94
2023-04-02T21:06:29.922Z,92017.81
2023-04-02T21:08:59.084Z,92018.19
2023-04-02T21:11:30.004Z,92014.88
2023-04-02T21:14:00.583Z,92017.25
2023-04-02T21:16:32.084Z,92022.22
2023-04-02T21:19:04.800Z,92021.38
2023-04-02T21:21:34.728Z,92018.69
2023-04-02T21:24:07.255Z,92026.84
2023-04-02T21:26:41.182Z,92024.94
2023-04-02T21:29:13.730Z,92032.63
2023-04-02T21:31:43.713Z,92038.38
2023-04-02T21:34:18.223Z,92037.94
2023-04-02T21:36:50.674Z,92043.59
2023-04-02T21:39:23.085Z,92046.06
2023-04-02T21:41:54.983Z,92043.47
2023-04-02T21:44:25.964Z,92043.47
2023-04-02T21:46:55.571Z,92037.66
2023-04-02T21:51:14.186Z,92042.50
2023-04-02T21:53:44.646Z,92050.78
2023-04-02T21:56:17.147Z,92047.00
2023-04-02T21:58:47.619Z,92050.66
2023-04-02T22:01:26.877Z,92057.84
2023-04-02T22:03:58.252Z,92059.38
2023-04-02T22:06:31.289Z,92065.25
2023-04-02T22:09:05.039Z,92059.81
2023-04-02T22:11:38.585Z,92064.25
2023-04-02T22:14:08.557Z,92062.72
2023-04-02T22:16:38.854Z,92057.75
2023-04-02T22:19:11.934Z,92057.53
2023-04-02T22:21:42.825Z,92068.59
2023-04-02T22:24:16.728Z,92080.44
2023-04-02T22:26:46.408Z,92071.63
2023-04-02T22:29:15.897Z,92074.22
2023-04-02T22:31:45.842Z,92069.25
2023-04-02T22:34:15.366Z,92070.44
2023-04-02T22:36:46.273Z,92076.13
2023-04-02T22:39:16.346Z,92072.69
2023-04-02T22:41:45.995Z,92067.72
2023-04-02T22:44:17.297Z,92068.69
2023-04-02T22:46:46.799Z,92066.19
2023-04-02T22:49:19.627Z,92066.31
2023-04-02T22:51:50.656Z,92074.88
2023-04-02T22:54:20.070Z,92071.19
2023-04-02T22:56:49.475Z,92070.97
2023-04-02T22:59:18.807Z,92073.09
2023-04-02T23:01:48.217Z,92071.75
2023-04-02T23:04:17.965Z,92066.34
2023-04-02T23:06:48.839Z,92069.66
2023-04-02T23:09:18.345Z,92078.63
2023-04-02T23:11:47.799Z,92070.94
2023-04-02T23:14:17.172Z,92071.03
2023-04-02T23:16:46.535Z,92068.53
2023-04-02T23:19:16.076Z,92067.56
2023-04-02T23:21:45.388Z,92066.69
2023-04-02T23:24:16.655Z,92067.00
2023-04-02T23:26:46.050Z,92057.59
2023-04-02T23:29:15.760Z,92057.63
2023-04-02T23:31:45.180Z,92061.09
2023-04-02T23:34:14.839Z,92058.00
2023-04-02T23:36:44.264Z,92056.66
2023-04-02T23:39:16.449Z,92059.66
2023-04-02T23:41:46.381Z,92056.69
2023-04-02T23:44:16.091Z,92044.09
2023-04-02T23:46:45.530Z,92041.03
2023-04-02T23:49:14.960Z,92040.09
2023-04-02T23:51:44.373Z,92039.47
2023-04-02T23:54:16.721Z,92046.41
2023-04-02T23:56:46.156Z,92039.78
2023-04-02T23:59:15.732Z,92029.13
